Terminal Aerodrome Forecast
Issued by NWS Sterling, VA

Current Version | Previous Version | Graphics & Text | Print | Product List | Glossary On
Versions: 1 2 3 4 5 6 7 8 9 10 11 12 13 14 15 16 17 18 19 20 21 22 23 24 25 26 27
000
FTUS41 KLWX 170520
TAFIAD
TAF
KIAD 170520Z 1706/1812 VRB03KT P6SM VCSH OVC011
     FM170900 VRB03KT P6SM VCSH OVC009
     FM171300 VRB03KT 3SM -SHRA BR OVC008
     FM171500 17007KT 6SM -SHRA BR OVC015
     FM172100 19009KT P6SM BKN025
     FM180000 19007KT P6SM BKN008
     FM180600 24006KT P6SM BKN080=

USA.gov is the U.S. government's official web portal to all federal, state and local government web resources and services.